Accueil
METAR-TAF:

METAR-TAF

Aéroports :

Shawbury, Angleterre

latitude: 52-48N, longitude: 002-40W, altitude: 76 m

Observation

Le bulletin a été fait il y a 1 heure et 5 minutes, à 06:50 UTC
Vent 9 kt de nord
Température 11°C
Humidité 94%
Pression 1019 hPa
Visibilité: 7000 m
Quelques nuages à une hauteur de 700 ft
Nuages fragmentés à une hauteur de 24000 ft

METAR: EGOS 220650Z 35009KT 9999 7000N FEW007 BKN240 11/10 Q1019 WHT BECMG 9999 NSW BLU

Heure: 08:55 (07:55 UTC)

Prévision

Le bulletin a été fait il y a 2 heures et 22 minutes, à 05:33 UTC
Prévision valable du 22 à 06 UTC au 22 à 15 UTC
Vent 5 kt de nord
Visibilité: 7000 m
Nuages épars à une hauteur de 600 ft
brume sèche
Evoluant progressivement
du 22 à 06 UTC au 22 à 08 UTC
Visibilité 10 km ou plus
Quelques nuages à une hauteur de 1600 ft

TAF: EGOS 220533Z 2206/2215 01005KT 7000 HZ SCT006 BECMG 2206/2208 9999 FEW016

Observations et prévisions météorologiques de plus de 4000 aéroports (messages METAR et TAF).

Les stations disponibles sont représentées par des disques jaunes et rouges sur la carte.

Passer la souris dessus pour voir le nom de la station.

Cliquer dessus pour voir les observations et prévisions météorologiques.

Pour changer de carte: cliquez sur les boutons verts avec une croix noire pour zoomer, sur le bouton vert avec un tiret pour effectuer un zoom arrière, ou sur les flèches vertes pour les cartes adjacentes.


METAR-TAF: